Date,TemperatureHighF,TemperatureAvgF,TemperatureLowF,DewpointHighF,DewpointAvgF,DewpointLowF,HumidityHigh,HumidityAvg,HumidityLow,PressureMaxIn,PressureMinIn,WindSpeedMaxMPH,WindSpeedAvgMPH,GustSpeedMaxMPH,PrecipitationSumIn
2013-3-1,74,64,52,42,39,34,60,40,32,0.00,0.00,0,0,0,0.00
2013-3-2,75,60,48,43,39,35,71,49,32,0.00,0.00,0,0,0,0.00
2013-3-3,68,57,51,45,39,35,72,53,34,0.00,0.00,0,0,0,0.00
2013-3-4,64,52,45,37,35,31,63,54,36,0.00,0.00,0,-852,0,0.00
2013-3-5,62,52,44,39,34,29,73,52,35,0.00,0.00,0,-999,0,0.08
2013-3-6,62,54,47,45,36,30,84,53,35,0.00,0.00,0,-999,0,0.16
2013-3-7,64,55,48,43,35,29,84,49,34,0.00,0.00,0,-999,0,0.24
2013-3-8,64,52,44,44,36,28,86,59,34,0.00,0.00,0,-999,0,0.24
2013-3-9,68,53,41,38,33,29,70,49,33,0.00,0.00,0,-999,0,0.24
2013-3-10,73,55,39,42,34,29,78,48,31,0.00,0.00,0,-999,0,0.24
2013-3-11,75,56,40,43,34,28,68,45,31,0.00,0.00,0,-999,0,0.24
2013-3-12,75,59,46,44,39,34,82,51,31,0.00,0.00,0,-999,0,0.24
2013-3-13,80,58,47,51,41,36,93,56,30,0.00,0.00,0,-999,0,0.00
2013-3-14,74,60,49,52,40,33,89,51,32,0.00,0.00,0,-999,0,0.00
2013-3-15,73,57,44,43,38,33,73,51,32,0.00,0.00,0,-999,0,0.00
2013-3-16,74,59,51,46,40,33,80,54,32,0.00,0.00,0,-999,0,0.00
2013-3-17,72,55,42,43,36,31,80,51,32,0.00,0.00,0,-999,0,0.00
2013-3-18,69,56,41,39,35,31,73,48,33,0.00,0.00,0,-999,0,0.00
2013-3-19,75,55,46,48,36,32,79,50,31,0.00,0.00,0,-999,0,0.08
2013-3-20,69,59,53,54,45,37,92,62,34,0.00,0.00,0,-999,0,0.08
2013-3-21,68,57,45,39,34,29,59,44,33,0.00,0.00,0,-999,0,0.00
2013-3-22,71,56,41,40,33,24,74,45,32,0.00,0.00,0,-999,0,0.00
2013-3-23,72,52,39,41,30,22,63,43,32,0.00,0.00,8,-176,8,0.00
2013-3-24,74,56,41,42,34,28,65,45,32,0.00,0.00,9,2,9,0.00
2013-3-25,65,53,43,42,35,32,80,52,35,0.00,0.00,9,2,9,0.00
2013-3-26,71,56,46,41,36,32,65,47,33,0.00,0.00,9,2,9,0.00
2013-3-27,76,59,47,44,39,35,72,50,32,0.00,0.00,8,1,8,0.00
2013-3-28,78,63,56,49,43,39,75,49,31,0.00,0.00,9,2,9,0.00
2013-3-29,83,62,56,48,45,39,70,56,30,0.00,0.00,8,1,8,0.00
2013-3-30,77,62,56,46,42,36,68,48,31,0.00,0.00,10,2,10,0.00
2013-3-31,72,61,54,52,43,0,89,54,33,0.00,0.00,8,2,8,0.08